Time;durP1;ratioP1;P1;durP2;ratioP2;P2;SDS_P1;SDS_P2;PMS_P1;PMS_P2;Temp;Humidity;BMP_temperature;BMP_pressure;BME280_temperature;BME280_humidity;BME280_pressure;Samples;Min_cycle;Max_cycle;Signal;HPM_P1;HPM_P2
2024/03/07 00:00:42;;;;;;;49.45;22.75;;;7.30;80.50;;;;;;9174860;19;20086;-64
2024/03/07 00:03:50;;;;;;;55.97;24.83;;;7.30;81.10;;;;;;9175876;19;20026;-63
2024/03/07 00:06:58;;;;;;;56.25;24.52;;;7.30;80.50;;;;;;9175523;19;20010;-66
2024/03/07 00:10:07;;;;;;;53.22;24.85;;;7.30;80.40;;;;;;9175537;19;20590;-64
2024/03/07 00:13:12;;;;;;;61.90;25.67;;;7.20;80.40;;;;;;9174764;19;20010;-67
2024/03/07 00:16:20;;;;;;;50.35;23.65;;;7.20;80.40;;;;;;9175267;19;20021;-65
2024/03/07 00:19:26;;;;;;;51.63;23.65;;;7.20;80.40;;;;;;9174242;19;20014;-64
2024/03/07 00:22:37;;;;;;;54.65;24.35;;;7.20;80.40;;;;;;9174178;19;20025;-65
2024/03/07 00:25:42;;;;;;;55.22;23.73;;;7.20;80.40;;;;;;9175243;19;20011;-65
2024/03/07 00:28:50;;;;;;;56.58;24.52;;;7.20;80.40;;;;;;9174945;19;20018;-66
2024/03/07 00:31:56;;;;;;;49.95;22.77;;;7.20;80.40;;;;;;9174007;19;20022;-65
2024/03/07 00:35:05;;;;;;;48.95;23.08;;;7.10;80.30;;;;;;9172532;19;20018;-66
2024/03/07 00:38:13;;;;;;;48.83;22.80;;;7.10;80.30;;;;;;9171696;19;20093;-65
2024/03/07 00:41:22;;;;;;;56.35;24.00;;;7.10;80.30;;;;;;9173549;19;20698;-65
2024/03/07 00:44:28;;;;;;;48.30;23.42;;;7.10;80.30;;;;;;9173844;19;20021;-65
2024/03/07 00:47:35;;;;;;;50.25;22.17;;;7.00;80.30;;;;;;9175102;19;20011;-64
2024/03/07 00:50:42;;;;;;;50.33;23.42;;;7.00;80.30;;;;;;9174653;19;20019;-64
2024/03/07 00:53:52;;;;;;;47.55;22.83;;;7.00;80.30;;;;;;9171905;19;20026;-64
2024/03/07 00:56:58;;;;;;;50.70;22.00;;;6.90;80.30;;;;;;9173958;19;20051;-64
2024/03/07 01:00:11;;;;;;;51.70;22.40;;;6.90;80.30;;;;;;9173267;19;20015;-64
2024/03/07 01:03:17;;;;;;;53.70;21.52;;;6.90;80.30;;;;;;9173041;19;20023;-63
2024/03/07 01:06:25;;;;;;;49.17;22.42;;;6.90;80.30;;;;;;9173982;19;20582;-66
2024/03/07 01:09:35;;;;;;;51.70;23.42;;;6.80;80.20;;;;;;9173361;19;20025;-66
2024/03/07 01:12:43;;;;;;;44.65;21.23;;;6.80;80.20;;;;;;9173120;19;20026;-65
2024/03/07 01:15:48;;;;;;;48.38;22.80;;;6.80;80.20;;;;;;9173116;19;20027;-63
2024/03/07 01:18:56;;;;;;;49.45;22.02;;;6.70;80.20;;;;;;9172511;19;20047;-67
2024/03/07 01:22:02;;;;;;;50.75;22.67;;;6.70;80.20;;;;;;9172887;19;20018;-66
2024/03/07 01:25:12;;;;;;;52.25;23.10;;;6.70;80.20;;;;;;9173091;19;20026;-64
2024/03/07 01:28:18;;;;;;;55.05;24.52;;;6.60;80.10;;;;;;9173671;19;20490;-64
2024/03/07 01:31:26;;;;;;;52.28;24.05;;;6.60;80.20;;;;;;9181374;19;20015;-63
2024/03/07 01:34:31;;;;;;;56.35;24.98;;;6.60;80.20;;;;;;9178322;19;20085;-64
2024/03/07 01:37:39;;;;;;;49.47;23.02;;;6.50;80.20;;;;;;9179021;19;20089;-63
2024/03/07 01:40:47;;;;;;;53.08;23.92;;;6.50;80.20;;;;;;9176694;19;20014;-64
2024/03/07 01:43:55;;;;;;;52.08;24.30;;;6.50;80.80;;;;;;9181280;19;20488;-64
2024/03/07 01:47:05;;;;;;;45.92;22.67;;;6.50;80.20;;;;;;9181391;19;20043;-66
2024/03/07 01:50:13;;;;;;;54.47;21.38;;;6.40;80.20;;;;;;9181608;19;20022;-65
2024/03/07 01:53:19;;;;;;;50.55;23.27;;;6.40;80.20;;;;;;9180711;19;20013;-64
2024/03/07 01:56:29;;;;;;;51.90;23.60;;;6.30;80.10;;;;;;9181051;19;20015;-64
2024/03/07 01:59:36;;;;;;;48.40;22.90;;;6.30;80.20;;;;;;9181030;19;20125;-64
2024/03/07 02:02:44;;;;;;;53.75;24.85;;;6.30;80.30;;;;;;9179490;19;20018;-66
2024/03/07 02:06:10;;;;;;;48.58;23.73;;;6.20;80.20;;;;;;9180839;19;20018;-66
2024/03/07 02:09:17;;;;;;;55.25;24.67;;;6.20;80.30;;;;;;9181333;19;20730;-63
2024/03/07 02:12:26;;;;;;;50.53;23.60;;;6.20;80.20;;;;;;9180369;19;20011;-64
2024/03/07 02:15:34;;;;;;;45.38;23.17;;;6.10;80.20;;;;;;9177097;19;20852;-65
2024/03/07 02:18:40;;;;;;;53.05;23.65;;;6.10;80.30;;;;;;9178909;19;20076;-64
2024/03/07 02:21:50;;;;;;;49.20;22.42;;;6.10;80.30;;;;;;9179221;19;20045;-64
2024/03/07 02:24:56;;;;;;;45.83;22.15;;;6.10;80.30;;;;;;9179182;19;20507;-65
2024/03/07 02:28:04;;;;;;;46.88;21.95;;;6.10;80.30;;;;;;9179193;19;20022;-63
2024/03/07 02:31:09;;;;;;;45.13;21.30;;;6.00;80.20;;;;;;9178847;19;20015;-64
2024/03/07 02:34:17;;;;;;;48.08;21.50;;;6.00;80.20;;;;;;9177508;19;20013;-64
2024/03/07 02:37:26;;;;;;;47.65;23.02;;;6.00;80.20;;;;;;9177259;19;20018;-63
2024/03/07 02:40:33;;;;;;;51.00;21.98;;;6.00;80.20;;;;;;9170028;19;20351;-62
2024/03/07 02:43:39;;;;;;;45.22;21.70;;;6.00;80.20;;;;;;9177506;19;20022;-64
2024/03/07 02:46:46;;;;;;;40.05;20.70;;;5.90;80.20;;;;;;9178494;19;20468;-65
2024/03/07 02:49:52;;;;;;;43.72;20.33;;;5.90;80.20;;;;;;9176981;19;20055;-65
2024/03/07 02:53:03;;;;;;;43.22;20.75;;;5.90;80.20;;;;;;9178026;19;20017;-64
2024/03/07 02:56:09;;;;;;;49.00;20.48;;;5.90;80.30;;;;;;9176637;19;20015;-65
2024/03/07 02:59:17;;;;;;;50.55;22.27;;;5.80;80.20;;;;;;9178203;19;20512;-63
2024/03/07 03:02:22;;;;;;;54.88;21.38;;;5.80;80.90;;;;;;9177844;19;20011;-65
2024/03/07 03:05:30;;;;;;;38.40;20.73;;;5.80;80.20;;;;;;9177726;19;20016;-64
2024/03/07 03:08:38;;;;;;;42.85;20.95;;;5.80;80.20;;;;;;9178321;19;20014;-63
2024/03/07 03:11:46;;;;;;;43.63;20.15;;;5.80;80.20;;;;;;9178410;19;20018;-64
2024/03/07 03:14:53;;;;;;;41.83;19.25;;;5.70;80.20;;;;;;9175472;19;20409;-64
2024/03/07 03:18:01;;;;;;;41.40;20.17;;;5.70;80.80;;;;;;9176808;19;20014;-65
2024/03/07 03:21:07;;;;;;;41.60;19.65;;;5.70;80.30;;;;;;9176797;19;20014;-64
2024/03/07 03:24:17;;;;;;;49.50;21.08;;;5.60;80.10;;;;;;9176647;19;20022;-66
2024/03/07 03:27:23;;;;;;;40.10;19.02;;;5.60;80.20;;;;;;9176071;19;20018;-64
2024/03/07 03:30:32;;;;;;;45.58;19.42;;;5.50;80.10;;;;;;9176764;19;20022;-63
2024/03/07 03:33:38;;;;;;;41.47;19.85;;;5.50;80.10;;;;;;9177128;19;20010;-63
2024/03/07 03:36:45;;;;;;;38.55;19.98;;;5.50;80.20;;;;;;9173421;19;20021;-65
2024/03/07 03:39:53;;;;;;;41.17;20.08;;;5.50;80.10;;;;;;9172588;19;20033;-64
2024/03/07 03:43:01;;;;;;;36.28;18.30;;;5.40;80.10;;;;;;9176247;19;20018;-65
2024/03/07 03:46:08;;;;;;;41.65;19.70;;;5.40;80.20;;;;;;9174693;19;20487;-65
2024/03/07 03:49:17;;;;;;;42.60;19.50;;;5.40;80.20;;;;;;9176521;19;20022;-64
2024/03/07 03:52:22;;;;;;;35.25;18.42;;;5.30;80.20;;;;;;9175126;19;20389;-67
2024/03/07 03:55:32;;;;;;;34.88;18.60;;;5.30;80.10;;;;;;9176030;19;20872;-66
2024/03/07 03:58:38;;;;;;;39.83;19.25;;;5.30;80.20;;;;;;9175498;19;20770;-64
2024/03/07 04:01:45;;;;;;;35.95;18.20;;;5.20;80.10;;;;;;9176129;19;20015;-65
2024/03/07 04:04:51;;;;;;;38.58;18.75;;;5.20;80.10;;;;;;9177140;19;20024;-64
2024/03/07 04:07:59;;;;;;;33.83;17.88;;;5.20;80.10;;;;;;9175444;19;20018;-64
2024/03/07 04:11:09;;;;;;;46.35;18.10;;;5.10;80.10;;;;;;9174898;19;20042;-65
2024/03/07 04:14:19;;;;;;;40.25;18.42;;;5.10;80.10;;;;;;9174946;19;20486;-64
2024/03/07 04:17:25;;;;;;;34.42;17.30;;;5.00;80.00;;;;;;9172052;19;20018;-64
2024/03/07 04:20:33;;;;;;;37.70;15.68;;;5.00;80.10;;;;;;9175263;19;20016;-64
2024/03/07 04:23:39;;;;;;;32.72;17.65;;;5.00;80.10;;;;;;9173330;19;20014;-64
2024/03/07 04:26:49;;;;;;;34.13;16.00;;;4.90;80.10;;;;;;9174308;19;20014;-67
2024/03/07 04:29:55;;;;;;;32.17;16.08;;;4.90;80.10;;;;;;9174588;19;20105;-63
2024/03/07 04:33:02;;;;;;;33.60;16.50;;;4.80;80.00;;;;;;9173893;19;20015;-65
2024/03/07 04:36:09;;;;;;;29.27;16.20;;;4.80;80.10;;;;;;9173324;19;20043;-65
2024/03/07 04:39:24;;;;;;;32.38;15.05;;;4.70;80.10;;;;;;9167090;19;20586;-64
2024/03/07 04:42:32;;;;;;;30.67;16.23;;;4.70;80.10;;;;;;9174167;19;20070;-63
2024/03/07 04:45:41;;;;;;;36.78;17.10;;;4.70;80.10;;;;;;9173371;19;20029;-63
2024/03/07 04:48:46;;;;;;;31.40;15.88;;;4.60;80.10;;;;;;9173278;19;20018;-64
2024/03/07 04:51:54;;;;;;;32.42;14.50;;;4.60;80.10;;;;;;9174391;19;20026;-65
2024/03/07 04:54:59;;;;;;;34.60;15.88;;;4.60;80.10;;;;;;9172291;19;20015;-64
2024/03/07 04:58:09;;;;;;;29.83;15.27;;;4.60;80.10;;;;;;9173178;19;20018;-64
2024/03/07 05:01:15;;;;;;;30.23;15.35;;;4.50;80.10;;;;;;9174009;19;20045;-63
2024/03/07 05:04:24;;;;;;;29.10;15.23;;;4.50;80.10;;;;;;9176607;19;20025;-63
2024/03/07 05:07:30;;;;;;;32.03;14.95;;;4.50;80.80;;;;;;9182775;19;20364;-64
2024/03/07 05:10:37;;;;;;;34.53;14.48;;;4.40;80.10;;;;;;9182054;19;20022;-64
2024/03/07 05:13:45;;;;;;;30.92;15.60;;;4.40;80.20;;;;;;9182524;19;20047;-64
2024/03/07 05:17:04;;;;;;;31.77;15.13;;;4.40;80.20;;;;;;9180184;19;20407;-65
2024/03/07 05:20:12;;;;;;;28.25;14.88;;;4.30;80.20;;;;;;9179957;19;20014;-63
2024/03/07 05:23:20;;;;;;;27.40;14.80;;;4.30;80.20;;;;;;9180990;19;20022;-63
2024/03/07 05:26:26;;;;;;;28.80;15.20;;;4.30;80.20;;;;;;9181143;19;20051;-64
2024/03/07 05:29:37;;;;;;;27.52;14.10;;;4.30;80.20;;;;;;9180282;19;20022;-63
2024/03/07 05:32:43;;;;;;;28.13;14.77;;;4.20;80.20;;;;;;9181091;19;20021;-62
2024/03/07 05:35:50;;;;;;;30.25;14.75;;;4.20;80.30;;;;;;9179925;19;20368;-63
2024/03/07 05:38:56;;;;;;;39.08;14.30;;;4.20;80.30;;;;;;9173003;19;20014;-64
2024/03/07 05:42:03;;;;;;;32.42;14.27;;;4.20;80.30;;;;;;9179852;19;20014;-65
2024/03/07 05:45:14;;;;;;;27.83;13.73;;;4.20;80.30;;;;;;9180777;19;20074;-64
2024/03/07 05:48:22;;;;;;;30.90;14.25;;;4.10;80.30;;;;;;9180958;19;20010;-64
2024/03/07 05:51:28;;;;;;;28.58;14.27;;;4.10;80.20;;;;;;9179878;19;20482;-63
2024/03/07 05:54:35;;;;;;;32.10;15.10;;;4.10;80.30;;;;;;9179436;19;20019;-62
2024/03/07 05:57:41;;;;;;;32.78;15.13;;;4.10;80.70;;;;;;9177907;19;20019;-63
2024/03/07 06:00:53;;;;;;;31.38;14.95;;;4.10;80.30;;;;;;9178710;19;20479;-63
2024/03/07 06:03:59;;;;;;;26.20;14.68;;;4.00;80.20;;;;;;9179289;19;20014;-64
2024/03/07 06:07:06;;;;;;;29.52;14.60;;;4.00;80.20;;;;;;9178097;19;20018;-63
2024/03/07 06:10:13;;;;;;;34.95;14.13;;;4.00;80.20;;;;;;9178679;19;20029;-64
2024/03/07 06:13:21;;;;;;;24.75;13.52;;;3.90;80.20;;;;;;9178306;19;20018;-63
2024/03/07 06:16:32;;;;;;;28.70;14.27;;;3.90;80.20;;;;;;9176315;19;20081;-64
2024/03/07 06:19:39;;;;;;;30.90;13.68;;;3.90;80.20;;;;;;9178054;19;20030;-64
2024/03/07 06:22:46;;;;;;;34.67;14.45;;;3.90;80.30;;;;;;9177002;19;20440;-65
2024/03/07 06:25:54;;;;;;;27.15;14.20;;;3.90;80.30;;;;;;9177570;19;20436;-62
2024/03/07 06:29:00;;;;;;;31.52;14.15;;;3.80;80.30;;;;;;9177717;19;20011;-64
2024/03/07 06:32:11;;;;;;;31.70;15.07;;;3.80;80.30;;;;;;9179476;19;20021;-62
2024/03/07 06:35:19;;;;;;;35.72;15.40;;;3.80;80.30;;;;;;9179077;19;20038;-63
2024/03/07 06:38:27;;;;;;;27.35;14.38;;;3.80;80.30;;;;;;9170977;19;20022;-64
2024/03/07 06:41:32;;;;;;;28.92;14.98;;;3.70;80.30;;;;;;9178736;19;20021;-63
2024/03/07 06:44:40;;;;;;;29.27;14.85;;;3.70;80.30;;;;;;9178091;19;20019;-64
2024/03/07 06:47:48;;;;;;;28.70;14.15;;;3.70;80.30;;;;;;9179048;19;20037;-63
2024/03/07 06:50:56;;;;;;;31.50;14.80;;;3.70;80.40;;;;;;9179808;19;20341;-63
2024/03/07 06:54:02;;;;;;;29.02;14.05;;;3.70;80.40;;;;;;9178771;19;20014;-65
2024/03/07 06:57:09;;;;;;;28.45;14.48;;;3.70;80.50;;;;;;9178147;19;20498;-62
2024/03/07 07:00:16;;;;;;;25.45;14.20;;;3.60;80.50;;;;;;9178199;19;20106;-64
2024/03/07 07:03:29;;;;;;;33.78;14.68;;;3.60;80.50;;;;;;9178333;19;20365;-65
2024/03/07 07:06:34;;;;;;;26.92;13.73;;;3.70;80.70;;;;;;9175804;19;20014;-64
2024/03/07 07:09:42;;;;;;;27.90;13.65;;;3.70;80.70;;;;;;9177674;19;20752;-64
2024/03/07 07:12:48;;;;;;;27.95;15.10;;;3.70;80.80;;;;;;9173472;19;20504;-65
2024/03/07 07:15:56;;;;;;;26.95;14.10;;;3.70;80.90;;;;;;9177594;19;20365;-63
2024/03/07 07:19:07;;;;;;;26.02;13.13;;;3.70;80.90;;;;;;9175082;19;20074;-64
2024/03/07 07:22:14;;;;;;;29.42;15.35;;;3.80;81.00;;;;;;9176823;19;20646;-63
2024/03/07 07:25:21;;;;;;;28.00;14.00;;;3.80;81.10;;;;;;9176269;19;20383;-64
2024/03/07 07:28:28;;;;;;;30.58;13.82;;;3.90;81.30;;;;;;9175809;19;20376;-64
2024/03/07 07:31:35;;;;;;;28.02;13.60;;;3.90;81.30;;;;;;9177908;19;20022;-64
2024/03/07 07:34:45;;;;;;;31.52;14.93;;;4.00;81.30;;;;;;9176916;19;20019;-64
2024/03/07 07:37:53;;;;;;;30.58;14.95;;;4.10;81.40;;;;;;9175454;19;20050;-64
2024/03/07 07:41:01;;;;;;;30.85;14.27;;;4.10;81.40;;;;;;9171299;19;20964;-65
2024/03/07 07:44:08;;;;;;;29.23;12.85;;;4.20;81.40;;;;;;9174840;19;20026;-67
2024/03/07 07:47:15;;;;;;;27.77;15.13;;;4.30;81.50;;;;;;9175352;19;20011;-64
2024/03/07 07:50:25;;;;;;;30.23;14.02;;;4.40;81.50;;;;;;9175427;19;20014;-64
2024/03/07 07:53:33;;;;;;;29.70;13.63;;;4.50;81.60;;;;;;9176783;19;20018;-65
2024/03/07 07:56:38;;;;;;;27.23;13.75;;;4.50;81.60;;;;;;9176141;19;20396;-66
2024/03/07 07:59:49;;;;;;;27.80;13.20;;;4.70;81.70;;;;;;9176849;19;20029;-72
2024/03/07 08:02:56;;;;;;;21.92;13.10;;;4.70;81.70;;;;;;9174860;19;20375;-67
2024/03/07 08:06:07;;;;;;;25.30;12.63;;;4.80;81.60;;;;;;9175905;19;20026;-66
2024/03/07 08:09:16;;;;;;;25.25;12.90;;;4.90;81.60;;;;;;9172328;19;20022;-65
2024/03/07 08:12:24;;;;;;;26.48;13.63;;;5.00;81.60;;;;;;9175368;19;20694;-67
2024/03/07 08:15:31;;;;;;;31.80;13.07;;;5.00;81.50;;;;;;9172227;19;20019;-66
2024/03/07 08:18:39;;;;;;;25.67;12.27;;;5.10;81.50;;;;;;9172050;19;20014;-65
2024/03/07 08:21:47;;;;;;;24.33;12.50;;;5.20;81.60;;;;;;9173464;19;20014;-66
2024/03/07 08:24:55;;;;;;;27.17;12.90;;;5.30;81.60;;;;;;9172324;19;20022;-65
2024/03/07 08:28:01;;;;;;;25.17;15.05;;;5.40;81.60;;;;;;9172887;19;20483;-67
2024/03/07 08:31:09;;;;;;;24.70;13.40;;;5.50;81.60;;;;;;9175136;19;20026;-66
2024/03/07 08:34:14;;;;;;;23.67;12.20;;;5.60;81.50;;;;;;9174413;19;20047;-67
2024/03/07 08:37:24;;;;;;;25.77;13.30;;;5.60;81.40;;;;;;9174651;19;20031;-68
2024/03/07 08:40:50;;;;;;;23.88;13.02;;;5.70;81.30;;;;;;9179029;19;20011;-65
2024/03/07 08:43:57;;;;;;;30.75;13.50;;;5.80;81.20;;;;;;9181918;19;20030;-64
2024/03/07 08:47:03;;;;;;;30.67;13.20;;;5.70;81.00;;;;;;9183931;19;20127;-65
2024/03/07 08:50:13;;;;;;;25.17;13.40;;;5.80;81.10;;;;;;9183631;19;20583;-65
2024/03/07 08:53:22;;;;;;;30.00;15.68;;;5.80;80.90;;;;;;9183382;19;20066;-66
2024/03/07 08:56:29;;;;;;;23.58;12.88;;;5.80;80.80;;;;;;9183233;19;20019;-68
2024/03/07 08:59:36;;;;;;;24.75;13.32;;;5.80;80.80;;;;;;9180200;19;20407;-66
2024/03/07 09:02:44;;;;;;;27.73;14.40;;;5.80;80.70;;;;;;9183045;19;20023;-65
2024/03/07 09:05:50;;;;;;;23.48;13.20;;;5.80;80.80;;;;;;9180744;19;20490;-66
2024/03/07 09:09:00;;;;;;;26.08;13.65;;;5.80;81.10;;;;;;9182431;19;20029;-65
2024/03/07 09:12:06;;;;;;;28.50;14.10;;;5.80;80.70;;;;;;9183200;19;20018;-65
2024/03/07 09:15:16;;;;;;;27.35;14.50;;;5.80;80.70;;;;;;9182100;19;20014;-65
2024/03/07 09:18:22;;;;;;;28.25;14.88;;;5.80;80.60;;;;;;9181160;19;20018;-65
2024/03/07 09:21:30;;;;;;;25.98;13.68;;;5.70;80.60;;;;;;9182894;19;20022;-64
2024/03/07 09:24:38;;;;;;;23.83;13.63;;;5.70;80.60;;;;;;9181999;19;20014;-66
2024/03/07 09:27:46;;;;;;;25.00;13.32;;;5.70;80.70;;;;;;9181965;19;20495;-66
2024/03/07 09:30:52;;;;;;;27.88;14.80;;;5.70;80.60;;;;;;9181326;19;20013;-65
2024/03/07 09:33:59;;;;;;;28.75;15.32;;;5.70;80.50;;;;;;9182052;19;20103;-66
2024/03/07 09:37:06;;;;;;;33.40;16.08;;;5.70;80.50;;;;;;9181119;19;20010;-65
2024/03/07 09:40:17;;;;;;;27.08;15.07;;;5.70;80.60;;;;;;9175537;19;20019;-66
2024/03/07 09:43:24;;;;;;;32.72;15.98;;;5.70;80.60;;;;;;9180779;19;20014;-66
2024/03/07 09:46:32;;;;;;;29.33;15.02;;;5.70;80.50;;;;;;9181772;19;20022;-66
2024/03/07 09:49:39;;;;;;;31.67;14.82;;;5.70;80.60;;;;;;9177160;19;20458;-65
2024/03/07 09:52:49;;;;;;;28.85;14.90;;;5.70;80.60;;;;;;9181218;19;20026;-64
2024/03/07 09:55:58;;;;;;;30.23;14.85;;;5.70;80.60;;;;;;9181632;19;20019;-65
2024/03/07 09:59:06;;;;;;;31.73;15.43;;;5.70;80.60;;;;;;9178864;19;20019;-65
2024/03/07 10:02:15;;;;;;;27.85;14.38;;;5.70;80.70;;;;;;9178304;19;20029;-65
2024/03/07 10:05:25;;;;;;;27.58;14.75;;;5.70;80.60;;;;;;9180728;19;20025;-66
2024/03/07 10:08:31;;;;;;;30.27;16.63;;;5.80;80.70;;;;;;9179387;19;20018;-66
2024/03/07 10:11:41;;;;;;;32.55;16.42;;;5.80;80.70;;;;;;9180768;19;20019;-67
2024/03/07 10:14:59;;;;;;;33.72;16.30;;;5.80;80.70;;;;;;9179742;19;20025;-65
2024/03/07 10:18:10;;;;;;;28.65;15.00;;;5.90;80.80;;;;;;9180029;19;20491;-65
2024/03/07 10:21:18;;;;;;;31.25;16.27;;;5.90;80.80;;;;;;9180137;19;20047;-65
2024/03/07 10:24:27;;;;;;;30.83;16.33;;;6.00;80.80;;;;;;9180268;19;20021;-66
2024/03/07 10:27:39;;;;;;;28.30;15.35;;;6.00;80.90;;;;;;9179880;19;20440;-65
2024/03/07 10:30:47;;;;;;;33.85;16.85;;;6.10;80.90;;;;;;9179439;19;20491;-67
2024/03/07 10:33:53;;;;;;;37.97;18.13;;;6.10;80.90;;;;;;9179214;19;20018;-66
2024/03/07 10:37:03;;;;;;;32.25;16.17;;;6.20;81.00;;;;;;9178399;19;20030;-66
2024/03/07 10:40:15;;;;;;;33.42;16.38;;;6.30;81.20;;;;;;9172837;19;20015;-65
2024/03/07 10:43:26;;;;;;;32.25;16.15;;;6.40;81.30;;;;;;9179059;19;20029;-65
2024/03/07 10:46:31;;;;;;;32.80;16.23;;;6.50;81.30;;;;;;9179199;19;20586;-66
2024/03/07 10:49:45;;;;;;;31.27;14.88;;;6.60;81.30;;;;;;9179112;19;20030;-67
2024/03/07 10:53:02;;;;;;;27.08;14.32;;;6.70;81.40;;;;;;9177200;19;20644;-65
2024/03/07 10:56:24;;;;;;;30.38;15.10;;;6.80;81.30;;;;;;9178292;19;20022;-65
2024/03/07 10:59:35;;;;;;;28.15;14.57;;;7.00;81.40;;;;;;9175628;19;20032;-67
2024/03/07 11:02:49;;;;;;;30.38;15.30;;;7.10;81.20;;;;;;9174018;19;20022;-66
2024/03/07 11:05:55;;;;;;;26.08;14.15;;;7.10;81.10;;;;;;9178202;19;20010;-65
2024/03/07 11:09:10;;;;;;;27.48;13.50;;;7.20;81.00;;;;;;9177449;19;20018;-66
2024/03/07 11:12:16;;;;;;;27.40;14.82;;;7.30;81.20;;;;;;9177711;19;20042;-68
2024/03/07 11:15:28;;;;;;;26.75;13.75;;;7.30;80.90;;;;;;9177789;19;20018;-65
2024/03/07 11:18:35;;;;;;;22.33;12.85;;;7.40;80.80;;;;;;9178175;19;20006;-66
2024/03/07 11:21:43;;;;;;;22.65;13.02;;;7.40;80.80;;;;;;9178030;19;20841;-68
2024/03/07 11:25:06;;;;;;;22.13;12.90;;;7.50;80.70;;;;;;9177755;19;20034;-66
2024/03/07 11:28:20;;;;;;;22.80;12.93;;;7.50;80.70;;;;;;9177944;19;20018;-67
2024/03/07 11:31:31;;;;;;;23.85;12.82;;;7.60;80.70;;;;;;9177190;19;20761;-65
2024/03/07 11:34:42;;;;;;;24.20;13.07;;;7.60;80.60;;;;;;9177284;19;20011;-65
2024/03/07 11:37:49;;;;;;;23.45;13.40;;;7.60;80.60;;;;;;9175962;19;20014;-66
2024/03/07 11:40:56;;;;;;;24.55;13.48;;;7.60;80.60;;;;;;9170182;19;20014;-65
2024/03/07 11:44:05;;;;;;;24.38;13.75;;;7.60;80.50;;;;;;9176293;19;20026;-65
2024/03/07 11:47:17;;;;;;;24.10;13.90;;;7.70;80.60;;;;;;9176060;19;20018;-65
2024/03/07 11:50:25;;;;;;;24.00;13.35;;;7.70;81.10;;;;;;9176457;19;20021;-66
2024/03/07 11:53:35;;;;;;;22.20;12.82;;;7.70;80.50;;;;;;9175217;19;20358;-66
2024/03/07 11:56:40;;;;;;;24.45;13.32;;;7.80;80.50;;;;;;9175369;19;20018;-66
2024/03/07 11:59:52;;;;;;;22.80;12.65;;;7.80;80.50;;;;;;9175337;19;20018;-67
2024/03/07 12:03:00;;;;;;;24.58;13.38;;;7.80;80.50;;;;;;9175736;19;20134;-66
2024/03/07 12:06:12;;;;;;;22.77;12.98;;;7.80;80.40;;;;;;9175121;19;20014;-66
2024/03/07 12:09:23;;;;;;;21.83;12.75;;;7.90;80.50;;;;;;9175420;19;20018;-65
2024/03/07 12:12:31;;;;;;;23.52;14.13;;;7.90;80.50;;;;;;9174315;19;20029;-67
2024/03/07 12:15:38;;;;;;;25.98;14.70;;;7.90;80.40;;;;;;9175523;19;20034;-65
2024/03/07 12:18:48;;;;;;;24.60;13.10;;;7.90;80.50;;;;;;9175227;19;20037;-66
2024/03/07 12:21:54;;;;;;;25.73;13.73;;;8.00;80.50;;;;;;9172873;19;20021;-66
2024/03/07 12:25:08;;;;;;;25.80;13.60;;;8.00;80.50;;;;;;9172909;19;20011;-67
2024/03/07 12:28:17;;;;;;;27.02;13.63;;;8.00;80.40;;;;;;9175151;19;20025;-66
2024/03/07 12:31:25;;;;;;;26.38;13.90;;;8.10;80.50;;;;;;9175245;19;20023;-67
2024/03/07 12:34:36;;;;;;;31.73;14.65;;;8.10;80.40;;;;;;9175541;19;20042;-66
2024/03/07 12:37:44;;;;;;;21.42;10.23;;;8.10;80.40;;;;;;9173559;19;20030;-66
2024/03/07 12:40:51;;;;;;;30.65;15.13;;;8.10;80.30;;;;;;9168941;19;20014;-65
2024/03/07 12:44:00;;;;;;;29.77;14.18;;;8.10;80.30;;;;;;9174431;19;20023;-66
2024/03/07 12:47:09;;;;;;;31.55;15.52;;;8.10;80.30;;;;;;9174840;19;20007;-65
2024/03/07 12:50:20;;;;;;;33.05;15.70;;;8.10;80.30;;;;;;9172916;19;20018;-66
2024/03/07 12:53:28;;;;;;;28.75;13.88;;;8.20;80.40;;;;;;9174142;19;20015;-65
2024/03/07 12:56:37;;;;;;;24.30;12.07;;;8.20;80.40;;;;;;9173740;19;20490;-66
2024/03/07 12:59:43;;;;;;;28.10;13.73;;;8.20;80.30;;;;;;9173761;19;20094;-66
2024/03/07 13:02:51;;;;;;;28.85;13.25;;;8.20;80.30;;;;;;9173512;19;20029;-65
2024/03/07 13:06:00;;;;;;;26.55;12.77;;;8.20;80.30;;;;;;9173848;19;20025;-66
2024/03/07 13:09:10;;;;;;;28.38;13.90;;;8.20;80.20;;;;;;9173464;19;20018;-66
2024/03/07 13:12:17;;;;;;;30.17;13.70;;;8.20;80.20;;;;;;9171933;19;20648;-66
2024/03/07 13:15:25;;;;;;;26.55;12.77;;;8.20;80.10;;;;;;9173750;19;20022;-67
2024/03/07 13:18:33;;;;;;;26.13;13.02;;;8.20;80.10;;;;;;9173446;19;20049;-65
2024/03/07 13:21:46;;;;;;;31.92;14.38;;;8.20;80.80;;;;;;9171742;19;20019;-67
2024/03/07 13:24:51;;;;;;;34.55;15.80;;;8.20;80.20;;;;;;9175617;19;20006;-67
2024/03/07 13:28:02;;;;;;;34.65;14.95;;;8.20;80.10;;;;;;9182167;19;20376;-65
2024/03/07 13:31:11;;;;;;;35.63;15.20;;;8.20;80.10;;;;;;9181990;19;20056;-66
2024/03/07 13:34:18;;;;;;;31.67;14.80;;;8.20;80.00;;;;;;9182541;19;20014;-67
2024/03/07 13:37:26;;;;;;;29.83;14.40;;;8.20;80.00;;;;;;9179988;19;20471;-66
2024/03/07 13:40:38;;;;;;;29.95;13.98;;;8.10;79.90;;;;;;9176799;19;20703;-67
2024/03/07 13:43:44;;;;;;;34.25;14.43;;;8.10;80.00;;;;;;9181370;19;20025;-66
2024/03/07 13:46:52;;;;;;;26.05;13.38;;;8.10;80.00;;;;;;9179043;19;20025;-66
2024/03/07 13:49:59;;;;;;;27.52;13.13;;;8.10;80.10;;;;;;9181348;19;20071;-65
2024/03/07 13:53:13;;;;;;;34.92;15.07;;;8.10;80.10;;;;;;9181741;19;20022;-65
2024/03/07 13:56:46;;;;;;;29.27;14.65;;;8.20;80.20;;;;;;9181521;19;20483;-66
2024/03/07 14:00:14;;;;;;;31.20;13.52;;;8.20;80.10;;;;;;9178988;19;20376;-66
2024/03/07 14:04:00;;;;;;;30.00;13.23;;;8.20;80.70;;;;;;9180719;19;20018;-66
2024/03/07 14:07:23;;;;;;;27.65;14.32;;;8.30;80.10;;;;;;9180701;19;20014;-67
2024/03/07 14:11:00;;;;;;;25.73;12.65;;;8.30;80.20;;;;;;9179828;19;20011;-66
2024/03/07 14:14:49;;;;;;;27.90;13.90;;;8.30;80.10;;;;;;9181241;19;20014;-66
2024/03/07 14:18:22;;;;;;;27.30;13.07;;;8.40;80.10;;;;;;9180280;19;20017;-65
2024/03/07 14:22:00;;;;;;;25.77;12.77;;;8.50;80.10;;;;;;9179197;19;20018;-69
2024/03/07 14:25:44;;;;;;;33.80;14.70;;;8.50;80.00;;;;;;9180134;19;20015;-66
2024/03/07 14:29:01;;;;;;;31.02;13.52;;;8.60;79.90;;;;;;9180525;19;20018;-68
2024/03/07 14:32:09;;;;;;;24.58;12.65;;;8.60;79.90;;;;;;9179543;19;20099;-66
2024/03/07 14:35:26;;;;;;;29.27;13.55;;;8.60;79.80;;;;;;9178282;19;20011;-66
2024/03/07 14:38:46;;;;;;;31.30;13.68;;;8.60;79.70;;;;;;9173521;19;20054;-66
2024/03/07 14:42:01;;;;;;;33.22;14.45;;;8.60;79.60;;;;;;9177101;19;20014;-67
2024/03/07 14:45:12;;;;;;;28.90;12.82;;;8.60;79.60;;;;;;9178371;19;20018;-70
2024/03/07 14:48:20;;;;;;;;;;;8.60;79.50;;;;;;9179041;19;20013;-66
2024/03/07 14:51:26;;;;;;;30.95;14.23;;;8.60;79.50;;;;;;9176979;19;19926;-65
2024/03/07 14:54:34;;;;;;;28.27;13.15;;;8.50;79.50;;;;;;9178797;19;20014;-65
2024/03/07 14:57:45;;;;;;;29.25;12.52;;;8.50;79.40;;;;;;9178906;19;20074;-66
2024/03/07 15:00:54;;;;;;;29.63;13.70;;;8.50;79.30;;;;;;9177627;19;20017;-68
2024/03/07 15:04:06;;;;;;;32.58;14.00;;;8.50;79.30;;;;;;9178577;19;20054;-66
2024/03/07 15:07:14;;;;;;;40.28;14.98;;;8.50;79.30;;;;;;9176967;19;20601;-66
2024/03/07 15:10:23;;;;;;;37.63;14.93;;;8.50;79.30;;;;;;9178475;19;20014;-66
2024/03/07 15:13:34;;;;;;;34.78;15.82;;;8.50;79.20;;;;;;9178059;19;20006;-65
2024/03/07 15:16:40;;;;;;;35.25;16.70;;;8.40;79.10;;;;;;9177272;19;20029;-66
2024/03/07 15:19:48;;;;;;;35.35;15.45;;;8.40;79.10;;;;;;9178057;19;20010;-66
2024/03/07 15:22:55;;;;;;;33.90;14.57;;;8.40;79.00;;;;;;9175709;19;20043;-66
2024/03/07 15:26:02;;;;;;;30.50;14.20;;;8.40;79.00;;;;;;9177238;19;20488;-66
2024/03/07 15:29:11;;;;;;;37.25;15.43;;;8.40;79.00;;;;;;9176913;19;20011;-68
2024/03/07 15:32:18;;;;;;;33.47;15.07;;;8.30;79.00;;;;;;9177062;19;20015;-65
2024/03/07 15:35:23;;;;;;;37.08;16.95;;;8.30;79.00;;;;;;9177027;19;20073;-66
2024/03/07 15:38:31;;;;;;;38.60;15.63;;;8.30;79.00;;;;;;9170254;19;20018;-67
2024/03/07 15:41:38;;;;;;;36.60;15.63;;;8.30;78.90;;;;;;9175746;19;20399;-66
2024/03/07 15:44:48;;;;;;;40.67;14.77;;;8.30;79.00;;;;;;9176744;19;20487;-67
2024/03/07 15:47:57;;;;;;;39.05;15.93;;;8.30;78.90;;;;;;9175377;19;20021;-65
2024/03/07 15:51:06;;;;;;;35.55;14.80;;;8.30;78.90;;;;;;9175365;19;20033;-65
2024/03/07 15:54:15;;;;;;;36.90;14.57;;;8.30;79.00;;;;;;9176508;19;20007;-66
2024/03/07 15:57:23;;;;;;;38.13;15.23;;;8.30;79.00;;;;;;9176913;19;20014;-66
2024/03/07 16:00:32;;;;;;;32.10;13.75;;;8.30;79.00;;;;;;9176344;19;20093;-66
2024/03/07 16:03:40;;;;;;;30.60;14.75;;;8.30;79.00;;;;;;9173791;19;20014;-66
2024/03/07 16:06:46;;;;;;;34.83;14.82;;;8.30;79.00;;;;;;9175005;19;20589;-68
2024/03/07 16:09:56;;;;;;;31.33;14.70;;;8.30;79.00;;;;;;9175081;19;20461;-66
2024/03/07 16:13:03;;;;;;;38.40;14.65;;;8.30;78.90;;;;;;9174434;19;20047;-66